createdAt,value
2023-05-12T00:01:44.491Z,100095.78
2023-05-12T00:04:48.089Z,100100.00
2023-05-12T00:07:50.390Z,100100.66
2023-05-12T00:10:52.381Z,100099.84
2023-05-12T00:13:54.843Z,100094.34
2023-05-12T00:16:57.948Z,100091.41
2023-05-12T00:19:59.678Z,100096.84
2023-05-12T00:23:01.372Z,100089.09
2023-05-12T00:26:03.093Z,100091.03
2023-05-12T00:29:04.780Z,100085.00
2023-05-12T00:32:08.305Z,100088.56
2023-05-12T00:35:10.565Z,100091.81
2023-05-12T00:38:13.027Z,100086.69
2023-05-12T00:41:14.702Z,100090.22
2023-05-12T00:44:18.424Z,100077.47
2023-05-12T00:47:22.330Z,100074.31
2023-05-12T00:50:24.288Z,100073.25
2023-05-12T00:53:32.592Z,100073.00
2023-05-12T00:56:39.603Z,100073.66
2023-05-12T00:59:42.953Z,100081.69
2023-05-12T01:02:47.088Z,100074.03
2023-05-12T01:05:53.198Z,100074.44
2023-05-12T01:08:55.954Z,100077.47
2023-05-12T01:11:57.867Z,100072.75
2023-05-12T01:14:59.930Z,100075.13
2023-05-12T01:18:05.559Z,100067.50
2023-05-12T01:21:08.166Z,100068.56
2023-05-12T01:24:12.112Z,100069.06
2023-05-12T01:27:17.273Z,100068.28
2023-05-12T01:30:20.308Z,100075.66
2023-05-12T01:33:22.280Z,100069.72
2023-05-12T01:36:24.678Z,100077.63
2023-05-12T01:39:26.689Z,100075.25
2023-05-12T01:42:30.365Z,100079.19
2023-05-12T01:45:33.536Z,100072.88
2023-05-12T01:48:35.181Z,100070.13
2023-05-12T01:51:37.009Z,100070.94
2023-05-12T01:54:39.431Z,100073.81
2023-05-12T01:57:42.652Z,100071.44
2023-05-12T02:00:44.405Z,100078.16
2023-05-12T02:03:50.068Z,100077.25
2023-05-12T02:06:52.083Z,100085.63
2023-05-12T02:09:54.132Z,100080.91
2023-05-12T02:12:58.913Z,100079.34
2023-05-12T02:16:02.697Z,100081.69
2023-05-12T02:19:04.840Z,100079.56
2023-05-12T02:22:08.192Z,100086.16
2023-05-12T02:25:10.035Z,100080.53
2023-05-12T02:28:13.116Z,100080.13
2023-05-12T02:31:15.947Z,100081.06
2023-05-12T02:34:17.901Z,100075.00
2023-05-12T02:37:19.670Z,100082.63
2023-05-12T02:40:21.825Z,100078.00
2023-05-12T02:43:24.983Z,100083.25
2023-05-12T02:46:27.808Z,100084.47
2023-05-12T02:49:30.296Z,100078.16
2023-05-12T02:52:32.210Z,100076.81
2023-05-12T02:55:34.042Z,100070.25
2023-05-12T02:58:37.262Z,100075.63
2023-05-12T03:01:39.191Z,100073.66
2023-05-12T03:04:41.137Z,100082.09
2023-05-12T03:07:42.833Z,100072.72
2023-05-12T03:10:44.777Z,100073.13
2023-05-12T03:13:48.841Z,100078.25
2023-05-12T03:16:50.598Z,100073.13
2023-05-12T03:19:52.389Z,100075.63
2023-05-12T03:22:54.445Z,100077.88
2023-05-12T03:25:56.314Z,100082.72
2023-05-12T03:28:59.698Z,100085.22
2023-05-12T03:32:01.438Z,100077.25
2023-05-12T03:35:03.601Z,100078.69
2023-05-12T03:38:05.467Z,100081.03
2023-05-12T03:41:08.423Z,100090.00
2023-05-12T03:44:12.257Z,100078.28
2023-05-12T03:47:14.172Z,100078.78
2023-05-12T03:50:17.616Z,100077.59
2023-05-12T03:53:19.547Z,100076.66
2023-05-12T03:56:21.378Z,100075.75
2023-05-12T03:59:24.573Z,100073.13
2023-05-12T04:02:26.906Z,100080.91
2023-05-12T04:05:28.900Z,100078.53
2023-05-12T04:08:32.480Z,100082.22
2023-05-12T04:11:35.167Z,100070.50
2023-05-12T04:14:43.293Z,100073.94
2023-05-12T04:17:45.306Z,100070.78
2023-05-12T04:20:47.479Z,100071.69
2023-05-12T04:23:52.333Z,100073.03
2023-05-12T04:26:54.209Z,100076.19
2023-05-12T04:29:57.297Z,100068.69
2023-05-12T04:33:00.112Z,100078.56
2023-05-12T04:36:02.418Z,100085.50
2023-05-12T04:39:04.370Z,100094.59
2023-05-12T04:42:07.005Z,100094.59
2023-05-12T04:45:12.041Z,100091.72
2023-05-12T04:48:13.886Z,100102.63
2023-05-12T04:51:16.604Z,100103.56
2023-05-12T04:54:18.381Z,100098.16
2023-05-12T04:57:20.350Z,100096.81
2023-05-12T05:00:23.781Z,100106.03
2023-05-12T05:03:26.205Z,100105.63
2023-05-12T05:06:28.365Z,100102.09
2023-05-12T05:09:30.656Z,100108.69
2023-05-12T05:12:32.545Z,100111.44
2023-05-12T05:15:35.827Z,100111.63
2023-05-12T05:18:37.944Z,100111.75
2023-05-12T05:21:40.167Z,100113.72
2023-05-12T05:24:42.204Z,100117.94
2023-05-12T05:27:44.036Z,100121.84
2023-05-12T05:30:47.369Z,100119.63
2023-05-12T05:33:49.882Z,100121.97
2023-05-12T05:36:52.050Z,100122.16
2023-05-12T05:39:53.810Z,100132.28
2023-05-12T05:42:55.578Z,100136.06
2023-05-12T05:45:58.756Z,100132.91
2023-05-12T05:49:00.954Z,100134.34
2023-05-12T05:52:04.246Z,100132.75
2023-05-12T05:55:07.920Z,100124.09
2023-05-12T05:58:10.432Z,100134.63
2023-05-12T06:01:13.699Z,100133.56
2023-05-12T06:04:16.388Z,100138.56
2023-05-12T06:07:22.164Z,100140.22
2023-05-12T06:10:24.472Z,100145.66
2023-05-12T06:13:26.213Z,100146.06
2023-05-12T06:16:30.390Z,100144.09
2023-05-12T06:19:32.047Z,100151.88
2023-05-12T06:22:34.710Z,100152.00
2023-05-12T06:25:36.458Z,100162.25
2023-05-12T06:28:38.438Z,100160.69
2023-05-12T06:31:41.598Z,100159.94
2023-05-12T06:34:43.707Z,100168.44
2023-05-12T06:37:49.596Z,100161.66
2023-05-12T06:40:51.560Z,100172.16
2023-05-12T06:43:53.409Z,100168.81
2023-05-12T06:47:04.814Z,100167.81
2023-05-12T06:50:07.825Z,100177.31
2023-05-12T06:53:09.747Z,100183.22
2023-05-12T06:56:11.834Z,100179.50
2023-05-12T06:59:14.520Z,100179.22
2023-05-12T07:02:17.696Z,100173.28
2023-05-12T07:05:20.129Z,100181.50
2023-05-12T07:08:22.258Z,100176.41
2023-05-12T07:11:23.984Z,100175.63
2023-05-12T07:14:25.722Z,100176.81
2023-05-12T07:17:29.035Z,100178.06
2023-05-12T07:20:30.894Z,100172.66
2023-05-12T07:23:34.251Z,100177.75
2023-05-12T07:26:36.177Z,100174.66
2023-05-12T07:29:38.719Z,100182.56
2023-05-12T07:32:46.872Z,100182.13
2023-05-12T07:36:01.149Z,100179.25
2023-05-12T07:39:03.960Z,100187.31
2023-05-12T07:42:06.216Z,100182.59
2023-05-12T07:45:08.620Z,100174.56
2023-05-12T07:48:12.182Z,100190.44
2023-05-12T07:51:14.065Z,100187.25
2023-05-12T07:54:15.875Z,100183.19
2023-05-12T07:57:17.703Z,100175.91
2023-05-12T08:00:20.332Z,100185.44
2023-05-12T08:03:23.663Z,100177.69
2023-05-12T08:06:25.706Z,100177.28
2023-05-12T08:09:27.625Z,100180.91
2023-05-12T08:12:29.408Z,100186.28
2023-05-12T08:15:31.109Z,100184.91
2023-05-12T08:18:34.221Z,100181.69
2023-05-12T08:21:35.940Z,100183.81
2023-05-12T08:24:37.761Z,100174.53
2023-05-12T08:27:39.566Z,100178.03
2023-05-12T08:30:41.453Z,100172.09
2023-05-12T08:33:45.036Z,100169.31
2023-05-12T08:36:47.167Z,100178.38
2023-05-12T08:39:49.054Z,100180.28
2023-05-12T08:42:55.974Z,100182.88
2023-05-12T08:45:58.463Z,100184.38
2023-05-12T08:49:04.098Z,100186.91
2023-05-12T08:52:27.280Z,100182.03
2023-05-12T08:55:32.754Z,100189.75
2023-05-12T08:58:41.614Z,100181.59
2023-05-12T09:01:47.273Z,100183.94
2023-05-12T09:04:51.238Z,100190.13
2023-05-12T09:07:56.031Z,100188.53
2023-05-12T09:11:00.149Z,100173.09
2023-05-12T09:14:04.714Z,100196.69
2023-05-12T09:17:06.741Z,100182.63
2023-05-12T09:20:20.615Z,100182.50
2023-05-12T09:23:32.163Z,100182.69
2023-05-12T09:26:45.842Z,100181.34
2023-05-12T09:29:58.624Z,100195.66
2023-05-12T09:33:08.024Z,100189.13
2023-05-12T09:36:11.571Z,100191.34
2023-05-12T09:39:13.937Z,100184.78
2023-05-12T09:42:15.845Z,100184.44
2023-05-12T09:45:19.730Z,100179.91
2023-05-12T09:48:22.257Z,100179.75
2023-05-12T09:51:26.999Z,100177.72
2023-05-12T09:54:29.831Z,100189.34
2023-05-12T09:57:32.149Z,100184.38
2023-05-12T10:00:46.592Z,100181.44
2023-05-12T10:03:57.981Z,100177.88
2023-05-12T10:07:01.256Z,100183.88
2023-05-12T10:10:07.276Z,100183.47
2023-05-12T10:13:14.321Z,100183.75
2023-05-12T10:16:16.575Z,100181.34
2023-05-12T10:19:19.089Z,100180.09
2023-05-12T10:22:23.419Z,100184.97
2023-05-12T10:25:25.126Z,100179.91
2023-05-12T10:28:27.829Z,100179.19
2023-05-12T10:31:30.406Z,100180.03
2023-05-12T10:34:34.788Z,100184.28
2023-05-12T10:37:37.931Z,100181.72
2023-05-12T10:40:51.894Z,100181.00
2023-05-12T10:44:13.623Z,100189.44
2023-05-12T10:47:15.437Z,100189.94
2023-05-12T10:50:27.182Z,100184.59
2023-05-12T10:53:47.637Z,100185.34
2023-05-12T10:56:57.842Z,100182.47
2023-05-12T11:00:01.009Z,100185.88
2023-05-12T11:03:13.113Z,100182.81
2023-05-12T11:06:19.436Z,100184.53
2023-05-12T11:09:23.210Z,100186.19
2023-05-12T11:12:27.237Z,100189.09
2023-05-12T11:15:30.099Z,100188.22
2023-05-12T11:18:31.897Z,100170.25
2023-05-12T11:21:33.750Z,100186.88
2023-05-12T11:24:38.218Z,100185.56
2023-05-12T11:27:45.351Z,100183.47
2023-05-12T11:30:54.684Z,100192.28
2023-05-12T11:34:11.971Z,100180.72
2023-05-12T11:37:14.641Z,100192.28
2023-05-12T11:40:20.244Z,100203.31
2023-05-12T11:43:22.706Z,100199.84
2023-05-12T11:46:25.567Z,100200.69
2023-05-12T11:49:27.900Z,100194.22
2023-05-12T11:52:29.676Z,100200.31
2023-05-12T11:55:34.126Z,100202.56
2023-05-12T11:58:35.981Z,100198.56
2023-05-12T12:01:44.602Z,100203.78
2023-05-12T12:04:46.405Z,100206.75
2023-05-12T12:07:48.423Z,100219.13
2023-05-12T12:10:51.563Z,100206.28
2023-05-12T12:13:57.602Z,100220.84
2023-05-12T12:17:00.282Z,100214.28
2023-05-12T12:20:02.142Z,100214.09
2023-05-12T12:23:03.967Z,100215.22
2023-05-12T12:26:07.835Z,100221.75
2023-05-12T12:29:09.946Z,100223.84
2023-05-12T12:32:11.781Z,100226.78
2023-05-12T12:35:13.665Z,100219.50
2023-05-12T12:38:15.446Z,100228.09
2023-05-12T12:41:18.876Z,100227.75
2023-05-12T12:44:21.765Z,100229.16
2023-05-12T12:47:24.383Z,100237.53
2023-05-12T12:50:27.294Z,100232.47
2023-05-12T12:53:29.212Z,100235.03
2023-05-12T12:56:32.401Z,100235.03
2023-05-12T12:59:34.285Z,100224.88
2023-05-12T13:02:36.131Z,100235.22
2023-05-12T13:05:38.598Z,100228.75
2023-05-12T13:08:40.947Z,100230.47
2023-05-12T13:11:44.301Z,100232.22
2023-05-12T13:14:46.393Z,100241.38
2023-05-12T13:17:48.507Z,100241.59
2023-05-12T13:20:50.431Z,100237.88
2023-05-12T13:23:52.226Z,100243.16
2023-05-12T13:26:55.399Z,100234.50
2023-05-12T13:29:57.054Z,100245.13
2023-05-12T13:32:58.744Z,100243.50
2023-05-12T13:36:00.471Z,100241.41
2023-05-12T13:39:03.715Z,100249.19
2023-05-12T13:42:07.860Z,100235.19
2023-05-12T13:45:10.812Z,100243.94
2023-05-12T13:48:12.903Z,100235.72
2023-05-12T13:51:14.892Z,100235.81
2023-05-12T13:54:16.632Z,100236.25
2023-05-12T13:57:24.350Z,100235.09
2023-05-12T14:00:29.770Z,100243.78
2023-05-12T14:03:31.464Z,100240.53
2023-05-12T14:06:33.407Z,100245.28
2023-05-12T14:09:35.415Z,100243.88
2023-05-12T14:12:38.672Z,100244.09
2023-05-12T14:15:48.687Z,100244.19
2023-05-12T14:18:52.107Z,100250.16
2023-05-12T14:21:53.918Z,100241.25
2023-05-12T14:24:57.025Z,100242.84
2023-05-12T14:29:54.007Z,100248.03
2023-05-12T14:32:55.789Z,100250.16
2023-05-12T14:36:06.572Z,100250.06
2023-05-12T14:39:09.614Z,100250.09
2023-05-12T14:42:13.520Z,100253.72
2023-05-12T14:45:16.934Z,100252.66
2023-05-12T14:48:18.799Z,100253.31
2023-05-12T14:51:20.429Z,100252.41
2023-05-12T14:54:25.561Z,100251.72
2023-05-12T14:57:27.618Z,100259.78
2023-05-12T15:00:31.508Z,100263.41
2023-05-12T15:03:33.801Z,100266.44
2023-05-12T15:06:37.705Z,100269.19
2023-05-12T15:09:39.354Z,100269.47
2023-05-12T15:12:41.216Z,100259.28
2023-05-12T15:15:44.362Z,100260.38
2023-05-12T15:18:46.311Z,100254.97
2023-05-12T15:21:48.374Z,100267.22
2023-05-12T15:24:50.054Z,100263.03
2023-05-12T15:27:52.210Z,100265.97
2023-05-12T15:30:56.768Z,100270.28
2023-05-12T15:33:58.978Z,100269.16
2023-05-12T15:37:00.991Z,100272.94
2023-05-12T15:40:03.442Z,100265.22
2023-05-12T15:43:05.335Z,100259.91
2023-05-12T15:46:10.855Z,100252.13
2023-05-12T15:49:12.785Z,100264.03
2023-05-12T15:52:14.555Z,100259.28
2023-05-12T15:55:16.916Z,100256.81
2023-05-12T15:58:21.982Z,100267.13
2023-05-12T16:01:25.369Z,100257.72
2023-05-12T16:04:29.701Z,100260.72
2023-05-12T16:07:31.828Z,100265.81
2023-05-12T16:10:34.102Z,100265.88
2023-05-12T16:13:35.916Z,100272.75
2023-05-12T16:16:42.838Z,100280.41
2023-05-12T16:19:44.682Z,100272.63
2023-05-12T16:22:46.477Z,100271.28
2023-05-12T16:25:48.161Z,100261.56
2023-05-12T16:28:49.819Z,100264.16
2023-05-12T16:31:53.044Z,100267.84
2023-05-12T16:34:56.012Z,100272.78
2023-05-12T16:37:57.819Z,100266.44
2023-05-12T16:41:00.103Z,100267.66
2023-05-12T16:44:04.848Z,100266.38
2023-05-12T16:47:07.964Z,100269.84
2023-05-12T16:50:09.899Z,100276.44
2023-05-12T16:53:13.257Z,100268.41
2023-05-12T16:56:15.160Z,100275.25
2023-05-12T16:59:17.100Z,100273.19
2023-05-12T17:02:20.483Z,100281.81
2023-05-12T17:05:22.665Z,100280.72
2023-05-12T17:08:25.033Z,100281.56
2023-05-12T17:11:27.076Z,100289.38
2023-05-12T17:14:28.819Z,100291.22
2023-05-12T17:17:32.332Z,100298.53
2023-05-12T17:20:34.213Z,100300.28
2023-05-12T17:23:35.875Z,100302.91
2023-05-12T17:26:37.965Z,100300.28
2023-05-12T17:29:39.886Z,100303.97
2023-05-12T17:32:44.163Z,100308.03
2023-05-12T17:35:56.497Z,100313.91
2023-05-12T17:39:07.941Z,100312.19
2023-05-12T17:42:10.127Z,100309.06
2023-05-12T17:45:14.211Z,100309.22
2023-05-12T17:48:17.519Z,100309.00
2023-05-12T17:51:19.344Z,100315.06
2023-05-12T17:54:21.088Z,100308.03
2023-05-12T17:57:23.241Z,100313.34
2023-05-12T18:00:25.353Z,100320.81
2023-05-12T18:03:28.530Z,100317.72
2023-05-12T18:06:31.051Z,100311.03
2023-05-12T18:09:33.109Z,100314.94
2023-05-12T18:12:34.934Z,100321.97
2023-05-12T18:15:36.837Z,100322.78
2023-05-12T18:18:40.017Z,100325.53
2023-05-12T18:21:41.868Z,100330.69
2023-05-12T18:24:44.718Z,100321.13
2023-05-12T18:27:46.652Z,100327.03
2023-05-12T18:30:48.915Z,100331.53
2023-05-12T18:33:52.762Z,100339.44
2023-05-12T18:36:54.563Z,100339.63
2023-05-12T18:39:58.474Z,100334.31
2023-05-12T18:43:00.530Z,100338.09
2023-05-12T18:46:02.683Z,100336.13
2023-05-12T18:49:06.022Z,100350.69
2023-05-12T18:52:07.803Z,100349.81
2023-05-12T18:55:10.747Z,100358.56
2023-05-12T18:58:12.635Z,100352.97
2023-05-12T19:01:14.525Z,100362.56
2023-05-12T19:04:19.617Z,100375.47
2023-05-12T19:07:21.428Z,100384.28
2023-05-12T19:10:23.237Z,100385.63
2023-05-12T19:13:25.076Z,100385.63
2023-05-12T19:16:26.881Z,100392.25
2023-05-12T19:19:30.872Z,100378.69
2023-05-12T19:22:32.752Z,100393.50
2023-05-12T19:25:35.343Z,100394.38
2023-05-12T19:28:37.298Z,100398.75
2023-05-12T19:31:39.240Z,100397.22
2023-05-12T19:34:42.604Z,100399.94
2023-05-12T19:37:44.439Z,100404.44
2023-05-12T19:40:46.372Z,100405.38
2023-05-12T19:43:49.575Z,100413.72
2023-05-12T19:46:52.301Z,100415.22
2023-05-12T19:49:55.925Z,100425.06
2023-05-12T19:52:57.965Z,100416.84
2023-05-12T19:55:59.799Z,100423.44
2023-05-12T19:59:01.677Z,100414.38
2023-05-12T20:02:03.596Z,100429.06
2023-05-12T20:05:07.680Z,100425.25
2023-05-12T20:08:09.590Z,100423.16
2023-05-12T20:11:11.424Z,100429.31
2023-05-12T20:14:13.255Z,100430.22
2023-05-12T20:17:15.023Z,100430.81
2023-05-12T20:20:18.319Z,100435.84
2023-05-12T20:23:19.958Z,100433.34
2023-05-12T20:26:21.764Z,100437.41
2023-05-12T20:29:25.540Z,100431.66
2023-05-12T20:32:27.471Z,100433.88
2023-05-12T20:35:31.018Z,100438.06
2023-05-12T20:38:32.712Z,100445.88
2023-05-12T20:41:34.423Z,100447.34
2023-05-12T20:44:36.463Z,100445.59
2023-05-12T20:47:38.338Z,100449.97
2023-05-12T20:50:42.384Z,100445.34
2023-05-12T20:53:44.158Z,100442.69
2023-05-12T20:56:46.064Z,100447.44
2023-05-12T20:59:48.627Z,100454.28
2023-05-12T21:02:52.207Z,100453.50
2023-05-12T21:05:55.584Z,100452.81
2023-05-12T21:08:57.554Z,100446.09
2023-05-12T21:12:19.464Z,100451.22
2023-05-12T21:15:21.306Z,100442.88
2023-05-12T21:18:23.405Z,100450.78
2023-05-12T21:21:26.749Z,100451.47
2023-05-12T21:24:28.688Z,100457.41
2023-05-12T21:27:30.743Z,100459.19
2023-05-12T21:30:34.755Z,100451.75
2023-05-12T21:33:36.682Z,100462.28
2023-05-12T21:36:40.215Z,100465.34
2023-05-12T21:39:42.122Z,100465.72
2023-05-12T21:42:44.041Z,100469.97
2023-05-12T21:45:46.008Z,100469.97
2023-05-12T21:48:47.853Z,100468.13
2023-05-12T21:51:55.026Z,100462.88
2023-05-12T21:54:56.871Z,100466.16
2023-05-12T21:57:58.784Z,100462.84
2023-05-12T22:01:00.562Z,100465.78
2023-05-12T22:04:02.914Z,100471.50
2023-05-12T22:07:06.142Z,100476.63
2023-05-12T22:10:08.301Z,100477.38
2023-05-12T22:13:10.306Z,100478.78
2023-05-12T22:16:12.085Z,100487.19
2023-05-12T22:19:13.809Z,100477.16
2023-05-12T22:22:16.920Z,100477.78
2023-05-12T22:25:18.666Z,100479.22
2023-05-12T22:28:20.772Z,100484.16
2023-05-12T22:31:22.733Z,100486.78
2023-05-12T22:34:24.736Z,100484.41
2023-05-12T22:37:28.396Z,100485.53
2023-05-12T22:40:30.743Z,100483.59
2023-05-12T22:43:32.426Z,100490.38
2023-05-12T22:46:34.155Z,100484.44
2023-05-12T22:49:35.995Z,100479.00
2023-05-12T22:52:39.276Z,100475.03
2023-05-12T22:55:41.114Z,100473.03
2023-05-12T22:58:42.761Z,100475.41
2023-05-12T23:01:44.577Z,100468.97
2023-05-12T23:04:46.672Z,100461.97
2023-05-12T23:07:49.771Z,100461.31
2023-05-12T23:10:51.574Z,100463.84
2023-05-12T23:13:53.501Z,100469.31
2023-05-12T23:16:55.354Z,100459.66
2023-05-12T23:19:58.050Z,100456.59
2023-05-12T23:23:01.247Z,100466.53
2023-05-12T23:26:03.065Z,100463.34
2023-05-12T23:29:04.690Z,100462.25
2023-05-12T23:32:07.188Z,100462.06
2023-05-12T23:35:09.997Z,100461.03
2023-05-12T23:38:13.288Z,100457.94
2023-05-12T23:41:15.117Z,100451.94
2023-05-12T23:44:16.838Z,100454.41
2023-05-12T23:47:19.500Z,100459.84
2023-05-12T23:50:21.807Z,100461.69
2023-05-12T23:53:25.783Z,100461.69
2023-05-12T23:56:27.507Z,100456.59
2023-05-12T23:59:29.250Z,100458.16
